sensor_id;sensor_type;location;lat;lon;timestamp;pressure;altitude;pressure_sealevel;temperature;humidity
72798;BME280;61084;55.816;37.036;2022-12-07T00:01:35;100609.13;;;-5.53;55.01
72798;BME280;61084;55.816;37.036;2022-12-07T00:04:03;100610.84;;;-5.52;55.15
72798;BME280;61084;55.816;37.036;2022-12-07T00:06:42;100607.44;;;-5.53;55.41
72798;BME280;61084;55.816;37.036;2022-12-07T00:09:14;100607.34;;;-5.56;55.33
72798;BME280;61084;55.816;37.036;2022-12-07T00:11:40;100604.03;;;-5.53;55.58
72798;BME280;61084;55.816;37.036;2022-12-07T00:14:09;100598.03;;;-5.54;55.42
72798;BME280;61084;55.816;37.036;2022-12-07T00:16:35;100600.59;;;-5.54;55.35
72798;BME280;61084;55.816;37.036;2022-12-07T00:19:03;100600.63;;;-5.52;55.30
72798;BME280;61084;55.816;37.036;2022-12-07T00:21:32;100605.81;;;-5.51;55.47
72798;BME280;61084;55.816;37.036;2022-12-07T00:23:58;100598.94;;;-5.52;55.18
72798;BME280;61084;55.816;37.036;2022-12-07T00:26:35;100605.84;;;-5.49;55.54
72798;BME280;61084;55.816;37.036;2022-12-07T00:29:06;100605.75;;;-5.52;55.49
72798;BME280;61084;55.816;37.036;2022-12-07T00:31:35;100606.56;;;-5.53;55.27
72798;BME280;61084;55.816;37.036;2022-12-07T00:34:07;100602.34;;;-5.53;55.23
72798;BME280;61084;55.816;37.036;2022-12-07T00:36:37;100600.63;;;-5.52;55.77
72798;BME280;61084;55.816;37.036;2022-12-07T00:39:03;100601.53;;;-5.50;55.86
72798;BME280;61084;55.816;37.036;2022-12-07T00:41:29;100594.66;;;-5.53;55.52
72798;BME280;61084;55.816;37.036;2022-12-07T00:43:56;100604.81;;;-5.54;55.51
72798;BME280;61084;55.816;37.036;2022-12-07T00:46:22;100604.78;;;-5.56;55.66
72798;BME280;61084;55.816;37.036;2022-12-07T00:48:49;100605.59;;;-5.57;55.46
72798;BME280;61084;55.816;37.036;2022-12-07T00:51:17;100609.00;;;-5.58;55.54
72798;BME280;61084;55.816;37.036;2022-12-07T00:53:45;100601.31;;;-5.58;55.83
72798;BME280;61084;55.816;37.036;2022-12-07T00:56:16;100602.19;;;-5.57;55.70
72798;BME280;61084;55.816;37.036;2022-12-07T00:58:43;100590.19;;;-5.60;55.62
72798;BME280;61084;55.816;37.036;2022-12-07T01:01:10;100591.75;;;-5.63;55.41
72798;BME280;61084;55.816;37.036;2022-12-07T01:03:37;100586.59;;;-5.65;55.51
72798;BME280;61084;55.816;37.036;2022-12-07T01:06:03;100595.16;;;-5.64;55.74
72798;BME280;61084;55.816;37.036;2022-12-07T01:08:30;100600.22;;;-5.66;55.78
72798;BME280;61084;55.816;37.036;2022-12-07T01:11:04;100597.59;;;-5.67;55.88
72798;BME280;61084;55.816;37.036;2022-12-07T01:13:30;100604.34;;;-5.69;55.51
72798;BME280;61084;55.816;37.036;2022-12-07T01:15:59;100595.75;;;-5.73;55.47
72798;BME280;61084;55.816;37.036;2022-12-07T01:18:29;100599.91;;;-5.76;55.25
72798;BME280;61084;55.816;37.036;2022-12-07T01:23:25;100596.38;;;-5.80;55.66
72798;BME280;61084;55.816;37.036;2022-12-07T01:25:59;100593.72;;;-5.83;55.40
72798;BME280;61084;55.816;37.036;2022-12-07T01:28:25;100587.63;;;-5.88;55.35
72798;BME280;61084;55.816;37.036;2022-12-07T01:30:59;100576.44;;;-5.91;55.20
72798;BME280;61084;55.816;37.036;2022-12-07T01:33:31;100583.97;;;-5.96;55.23
72798;BME280;61084;55.816;37.036;2022-12-07T01:36:12;100581.34;;;-5.97;55.50
72798;BME280;61084;55.816;37.036;2022-12-07T01:38:39;100590.63;;;-6.01;55.01
72798;BME280;61084;55.816;37.036;2022-12-07T01:41:05;100582.91;;;-6.02;55.43
72798;BME280;61084;55.816;37.036;2022-12-07T01:43:33;100583.69;;;-6.05;55.36
72798;BME280;61084;55.816;37.036;2022-12-07T01:46:00;100580.13;;;-6.08;55.14
72798;BME280;61084;55.816;37.036;2022-12-07T01:48:37;100573.25;;;-6.11;54.91
72798;BME280;61084;55.816;37.036;2022-12-07T01:51:10;100582.50;;;-6.15;55.22
72798;BME280;61084;55.816;37.036;2022-12-07T01:53:41;100576.44;;;-6.18;54.89
72798;BME280;61084;55.816;37.036;2022-12-07T01:56:11;100578.94;;;-6.20;55.07
72798;BME280;61084;55.816;37.036;2022-12-07T01:58:41;100577.09;;;-6.24;54.92
72798;BME280;61084;55.816;37.036;2022-12-07T02:01:06;100573.59;;;-6.27;54.95
72798;BME280;61084;55.816;37.036;2022-12-07T02:03:43;100571.00;;;-6.29;54.93
72798;BME280;61084;55.816;37.036;2022-12-07T02:06:13;100571.75;;;-6.31;55.25
72798;BME280;61084;55.816;37.036;2022-12-07T02:08:41;100577.63;;;-6.34;55.17
72798;BME280;61084;55.816;37.036;2022-12-07T02:11:08;100571.59;;;-6.36;55.24
72798;BME280;61084;55.816;37.036;2022-12-07T02:13:36;100563.81;;;-6.39;55.30
72798;BME280;61084;55.816;37.036;2022-12-07T02:21:46;100563.59;;;-6.46;54.91
72798;BME280;61084;55.816;37.036;2022-12-07T02:32:45;100563.88;;;-6.62;54.96
72798;BME280;61084;55.816;37.036;2022-12-07T02:35:55;100562.97;;;-6.64;54.79
72798;BME280;61084;55.816;37.036;2022-12-07T02:38:37;100562.81;;;-6.69;55.08
72798;BME280;61084;55.816;37.036;2022-12-07T02:41:11;100562.69;;;-6.72;54.69
72798;BME280;61084;55.816;37.036;2022-12-07T02:43:51;100564.28;;;-6.75;54.72
72798;BME280;61084;55.816;37.036;2022-12-07T02:46:31;100561.72;;;-6.75;54.88
72798;BME280;61084;55.816;37.036;2022-12-07T02:48:58;100565.97;;;-6.76;54.77
72798;BME280;61084;55.816;37.036;2022-12-07T02:51:30;100565.03;;;-6.78;54.87
72798;BME280;61084;55.816;37.036;2022-12-07T02:53:56;100561.47;;;-6.83;54.84
72798;BME280;61084;55.816;37.036;2022-12-07T03:13:37;100562.47;;;-7.03;54.62
72798;BME280;61084;55.816;37.036;2022-12-07T03:15:57;100559.06;;;-7.02;55.17
72798;BME280;61084;55.816;37.036;2022-12-07T03:18:32;100556.44;;;-7.05;54.77
72798;BME280;61084;55.816;37.036;2022-12-07T03:21:06;100557.06;;;-7.11;54.98
72798;BME280;61084;55.816;37.036;2022-12-07T03:23:37;100559.63;;;-7.11;55.04
72798;BME280;61084;55.816;37.036;2022-12-07T03:26:04;100553.72;;;-7.10;55.01
72798;BME280;61084;55.816;37.036;2022-12-07T03:28:33;100553.69;;;-7.11;55.18
72798;BME280;61084;55.816;37.036;2022-12-07T03:31:19;100551.94;;;-7.12;55.28
72798;BME280;61084;55.816;37.036;2022-12-07T03:39:33;100547.38;;;-7.21;55.36
72798;BME280;61084;55.816;37.036;2022-12-07T03:42:04;100535.22;;;-7.28;54.94
72798;BME280;61084;55.816;37.036;2022-12-07T03:44:31;100547.16;;;-7.27;55.27
72798;BME280;61084;55.816;37.036;2022-12-07T03:47:04;100538.63;;;-7.27;55.58
72798;BME280;61084;55.816;37.036;2022-12-07T03:49:55;100527.50;;;-7.29;55.49
72798;BME280;61084;55.816;37.036;2022-12-07T03:52:30;100534.41;;;-7.27;55.46
72798;BME280;61084;55.816;37.036;2022-12-07T03:57:30;100530.84;;;-7.30;55.54
72798;BME280;61084;55.816;37.036;2022-12-07T03:59:58;100532.56;;;-7.31;55.39
72798;BME280;61084;55.816;37.036;2022-12-07T04:02:27;100523.97;;;-7.33;55.67
72798;BME280;61084;55.816;37.036;2022-12-07T04:04:54;100534.13;;;-7.34;55.48
72798;BME280;61084;55.816;37.036;2022-12-07T04:07:21;100529.78;;;-7.37;55.33
72798;BME280;61084;55.816;37.036;2022-12-07T04:09:47;100524.50;;;-7.41;55.43
72798;BME280;61084;55.816;37.036;2022-12-07T04:12:13;100527.06;;;-7.41;55.81
72798;BME280;61084;55.816;37.036;2022-12-07T04:14:39;100522.66;;;-7.45;55.80
72798;BME280;61084;55.816;37.036;2022-12-07T04:17:04;100526.03;;;-7.46;55.99
72798;BME280;61084;55.816;37.036;2022-12-07T04:19:32;100523.31;;;-7.51;55.41
72798;BME280;61084;55.816;37.036;2022-12-07T04:22:00;100524.03;;;-7.55;55.48
72798;BME280;61084;55.816;37.036;2022-12-07T04:24:26;100526.50;;;-7.56;55.63
72798;BME280;61084;55.816;37.036;2022-12-07T04:26:52;100522.28;;;-7.56;55.25
72798;BME280;61084;55.816;37.036;2022-12-07T04:29:18;100518.81;;;-7.58;55.69
72798;BME280;61084;55.816;37.036;2022-12-07T04:31:45;100522.22;;;-7.57;55.42
72798;BME280;61084;55.816;37.036;2022-12-07T04:34:12;100521.34;;;-7.58;55.76
72798;BME280;61084;55.816;37.036;2022-12-07T04:36:38;100512.84;;;-7.58;55.88
72798;BME280;61084;55.816;37.036;2022-12-07T04:39:06;100519.72;;;-7.56;55.68
72798;BME280;61084;55.816;37.036;2022-12-07T04:41:32;100520.44;;;-7.60;55.74
72798;BME280;61084;55.816;37.036;2022-12-07T04:44:03;100518.63;;;-7.62;55.37
72798;BME280;61084;55.816;37.036;2022-12-07T04:46:31;100506.66;;;-7.65;55.86
72798;BME280;61084;55.816;37.036;2022-12-07T04:48:57;100519.47;;;-7.63;55.78
72798;BME280;61084;55.816;37.036;2022-12-07T04:51:26;100507.41;;;-7.68;55.60
72798;BME280;61084;55.816;37.036;2022-12-07T04:53:53;100515.13;;;-7.66;55.91
72798;BME280;61084;55.816;37.036;2022-12-07T04:56:19;100523.63;;;-7.65;56.29
72798;BME280;61084;55.816;37.036;2022-12-07T04:58:46;100514.13;;;-7.70;55.64
72798;BME280;61084;55.816;37.036;2022-12-07T05:01:13;100518.28;;;-7.72;56.01
72798;BME280;61084;55.816;37.036;2022-12-07T05:03:40;100518.19;;;-7.75;56.21
72798;BME280;61084;55.816;37.036;2022-12-07T05:06:06;100515.66;;;-7.75;55.95
72798;BME280;61084;55.816;37.036;2022-12-07T05:08:33;100515.69;;;-7.73;56.38
72798;BME280;61084;55.816;37.036;2022-12-07T05:11:00;100519.03;;;-7.74;56.54
72798;BME280;61084;55.816;37.036;2022-12-07T05:13:26;100519.13;;;-7.73;56.28
72798;BME280;61084;55.816;37.036;2022-12-07T05:15:52;100516.63;;;-7.71;56.51
72798;BME280;61084;55.816;37.036;2022-12-07T05:18:17;100524.13;;;-7.74;56.34
72798;BME280;61084;55.816;37.036;2022-12-07T05:20:44;100516.44;;;-7.76;56.64
72798;BME280;61084;55.816;37.036;2022-12-07T05:23:10;100516.41;;;-7.77;56.49
72798;BME280;61084;55.816;37.036;2022-12-07T05:25:36;100518.06;;;-7.78;56.32
72798;BME280;61084;55.816;37.036;2022-12-07T05:28:03;100517.84;;;-7.84;56.63
72798;BME280;61084;55.816;37.036;2022-12-07T05:30:30;100516.97;;;-7.84;56.66
72798;BME280;61084;55.816;37.036;2022-12-07T05:32:56;100516.09;;;-7.85;56.48
72798;BME280;61084;55.816;37.036;2022-12-07T05:35:22;100515.16;;;-7.87;56.53
72798;BME280;61084;55.816;37.036;2022-12-07T05:37:48;100522.06;;;-7.84;56.90
72798;BME280;61084;55.816;37.036;2022-12-07T05:40:15;100515.13;;;-7.88;56.82
72798;BME280;61084;55.816;37.036;2022-12-07T05:42:41;100519.34;;;-7.89;57.07
72798;BME280;61084;55.816;37.036;2022-12-07T05:45:08;100515.75;;;-7.94;57.16
72798;BME280;61084;55.816;37.036;2022-12-07T05:47:35;100515.69;;;-7.95;57.04
72798;BME280;61084;55.816;37.036;2022-12-07T05:50:01;100519.91;;;-7.96;57.30
72798;BME280;61084;55.816;37.036;2022-12-07T05:52:26;100517.34;;;-7.96;57.24
72798;BME280;61084;55.816;37.036;2022-12-07T05:54:52;100514.91;;;-7.94;57.11
72798;BME280;61084;55.816;37.036;2022-12-07T05:57:18;100518.22;;;-7.95;57.05
72798;BME280;61084;55.816;37.036;2022-12-07T05:59:44;100509.91;;;-7.91;57.33
72798;BME280;61084;55.816;37.036;2022-12-07T06:02:13;100506.56;;;-7.90;57.49
72798;BME280;61084;55.816;37.036;2022-12-07T06:04:41;100500.63;;;-7.89;57.53
72798;BME280;61084;55.816;37.036;2022-12-07T06:07:08;100507.47;;;-7.88;57.74
72798;BME280;61084;55.816;37.036;2022-12-07T06:09:35;100505.81;;;-7.88;57.63
72798;BME280;61084;55.816;37.036;2022-12-07T06:12:01;100500.72;;;-7.88;57.46
72798;BME280;61084;55.816;37.036;2022-12-07T06:14:46;100508.34;;;-7.88;57.46
72798;BME280;61084;55.816;37.036;2022-12-07T06:17:12;100505.72;;;-7.89;57.62
72798;BME280;61084;55.816;37.036;2022-12-07T06:19:38;100496.41;;;-7.89;57.72
72798;BME280;61084;55.816;37.036;2022-12-07T06:22:04;100511.69;;;-7.89;57.41
72798;BME280;61084;55.816;37.036;2022-12-07T06:24:31;100506.50;;;-7.92;57.85
72798;BME280;61084;55.816;37.036;2022-12-07T06:26:58;100504.94;;;-7.88;57.50
72798;BME280;61084;55.816;37.036;2022-12-07T06:29:23;100506.78;;;-7.84;57.79
72798;BME280;61084;55.816;37.036;2022-12-07T06:31:49;100503.47;;;-7.82;57.99
72798;BME280;61084;55.816;37.036;2022-12-07T06:34:18;100500.81;;;-7.85;57.81
72798;BME280;61084;55.816;37.036;2022-12-07T06:36:45;100504.34;;;-7.81;57.86
72798;BME280;61084;55.816;37.036;2022-12-07T06:39:12;100501.81;;;-7.81;58.01
72798;BME280;61084;55.816;37.036;2022-12-07T06:41:39;100500.22;;;-7.78;58.43
72798;BME280;61084;55.816;37.036;2022-12-07T06:44:05;100493.41;;;-7.79;58.17
72798;BME280;61084;55.816;37.036;2022-12-07T06:46:32;100502.81;;;-7.76;58.26
72798;BME280;61084;55.816;37.036;2022-12-07T06:48:58;100503.81;;;-7.73;57.94
72798;BME280;61084;55.816;37.036;2022-12-07T06:51:24;100502.28;;;-7.68;58.23
72798;BME280;61084;55.816;37.036;2022-12-07T06:53:49;100499.81;;;-7.66;58.33
72798;BME280;61084;55.816;37.036;2022-12-07T06:56:15;100505.84;;;-7.64;58.18
72798;BME280;61084;55.816;37.036;2022-12-07T06:58:41;100501.53;;;-7.65;58.37
72798;BME280;61084;55.816;37.036;2022-12-07T07:01:15;100505.81;;;-7.65;58.46
72798;BME280;61084;55.816;37.036;2022-12-07T07:03:42;100509.31;;;-7.62;58.68
72798;BME280;61084;55.816;37.036;2022-12-07T07:06:08;100509.47;;;-7.57;58.63
72798;BME280;61084;55.816;37.036;2022-12-07T07:08:35;100502.94;;;-7.51;58.56
72798;BME280;61084;55.816;37.036;2022-12-07T07:11:01;100504.66;;;-7.50;58.79
72798;BME280;61084;55.816;37.036;2022-12-07T07:13:27;100502.28;;;-7.45;58.81
72798;BME280;61084;55.816;37.036;2022-12-07T07:15:53;100498.16;;;-7.42;58.88
72798;BME280;61084;55.816;37.036;2022-12-07T07:18:19;100496.59;;;-7.38;58.34
72798;BME280;61084;55.816;37.036;2022-12-07T07:20:45;100498.53;;;-7.31;58.70
72798;BME280;61084;55.816;37.036;2022-12-07T07:23:11;100496.09;;;-7.28;58.48
72798;BME280;61084;55.816;37.036;2022-12-07T07:25:37;100498.75;;;-7.25;58.27
72798;BME280;61084;55.816;37.036;2022-12-07T07:28:03;100491.06;;;-7.27;58.65
72798;BME280;61084;55.816;37.036;2022-12-07T07:30:29;100488.59;;;-7.24;58.77
72798;BME280;61084;55.816;37.036;2022-12-07T07:33:01;100482.91;;;-7.17;58.75
72798;BME280;61084;55.816;37.036;2022-12-07T07:35:28;100483.19;;;-7.09;58.34
72798;BME280;61084;55.816;37.036;2022-12-07T07:37:55;100474.81;;;-7.05;58.43
72798;BME280;61084;55.816;37.036;2022-12-07T07:40:22;100478.16;;;-7.06;58.48
72798;BME280;61084;55.816;37.036;2022-12-07T07:42:49;100484.31;;;-7.01;58.50
72798;BME280;61084;55.816;37.036;2022-12-07T07:45:15;100475.91;;;-6.99;58.36
72798;BME280;61084;55.816;37.036;2022-12-07T07:47:41;100477.72;;;-6.95;58.34
72798;BME280;61084;55.816;37.036;2022-12-07T07:50:07;100481.34;;;-6.88;58.57
72798;BME280;61084;55.816;37.036;2022-12-07T07:52:33;100472.03;;;-6.87;58.38
72798;BME280;61084;55.816;37.036;2022-12-07T07:54:59;100467.06;;;-6.83;58.30
72798;BME280;61084;55.816;37.036;2022-12-07T07:57:24;100479.16;;;-6.77;58.69
72798;BME280;61084;55.816;37.036;2022-12-07T07:59:50;100473.25;;;-6.76;58.41
72798;BME280;61084;55.816;37.036;2022-12-07T08:02:18;100466.66;;;-6.70;58.35
72798;BME280;61084;55.816;37.036;2022-12-07T08:04:45;100473.63;;;-6.64;58.29
72798;BME280;61084;55.816;37.036;2022-12-07T08:07:11;100465.25;;;-6.60;58.23
72798;BME280;61084;55.816;37.036;2022-12-07T08:09:37;100464.50;;;-6.58;58.23
72798;BME280;61084;55.816;37.036;2022-12-07T08:12:04;100462.03;;;-6.55;58.43
72798;BME280;61084;55.816;37.036;2022-12-07T08:14:30;100459.63;;;-6.50;58.23
72798;BME280;61084;55.816;37.036;2022-12-07T08:16:56;100457.16;;;-6.47;58.35
72798;BME280;61084;55.816;37.036;2022-12-07T08:19:22;100453.75;;;-6.48;58.34
72798;BME280;61084;55.816;37.036;2022-12-07T08:21:48;100455.66;;;-6.41;58.07
72798;BME280;61084;55.816;37.036;2022-12-07T08:24:14;100451.53;;;-6.37;58.32
72798;BME280;61084;55.816;37.036;2022-12-07T08:26:41;100452.59;;;-6.31;58.04
72798;BME280;61084;55.816;37.036;2022-12-07T08:29:07;100441.66;;;-6.27;58.04
72798;BME280;61084;55.816;37.036;2022-12-07T08:31:32;100443.38;;;-6.26;57.96
72798;BME280;61084;55.816;37.036;2022-12-07T08:33:58;100444.38;;;-6.21;58.13
72798;BME280;61084;55.816;37.036;2022-12-07T08:36:24;100444.38;;;-6.21;57.87
72798;BME280;61084;55.816;37.036;2022-12-07T08:38:50;100438.66;;;-6.13;57.80
72798;BME280;61084;55.816;37.036;2022-12-07T08:41:16;100443.84;;;-6.10;57.76
72798;BME280;61084;55.816;37.036;2022-12-07T08:43:42;100441.25;;;-6.12;57.61
72798;BME280;61084;55.816;37.036;2022-12-07T08:46:38;100443.94;;;-6.07;57.88
72798;BME280;61084;55.816;37.036;2022-12-07T08:49:21;100441.69;;;-5.97;57.67
72798;BME280;61084;55.816;37.036;2022-12-07T08:51:49;100438.38;;;-5.94;57.69
72798;BME280;61084;55.816;37.036;2022-12-07T08:54:17;100430.06;;;-5.87;58.06
72798;BME280;61084;55.816;37.036;2022-12-07T08:56:45;100444.53;;;-5.88;57.51
72798;BME280;61084;55.816;37.036;2022-12-07T08:59:14;100428.41;;;-5.85;57.88
72798;BME280;61084;55.816;37.036;2022-12-07T09:01:40;100428.44;;;-5.82;57.40
72798;BME280;61084;55.816;37.036;2022-12-07T09:04:06;100426.75;;;-5.82;57.58
72798;BME280;61084;55.816;37.036;2022-12-07T09:06:31;100426.09;;;-5.76;57.90
72798;BME280;61084;55.816;37.036;2022-12-07T09:09:00;100427.06;;;-5.71;57.55
72798;BME280;61084;55.816;37.036;2022-12-07T09:11:27;100415.13;;;-5.72;57.44
72798;BME280;61084;55.816;37.036;2022-12-07T09:13:53;100415.28;;;-5.66;57.29
72798;BME280;61084;55.816;37.036;2022-12-07T09:16:18;100417.19;;;-5.59;57.36
72798;BME280;61084;55.816;37.036;2022-12-07T09:18:44;100414.88;;;-5.50;57.17
72798;BME280;61084;55.816;37.036;2022-12-07T09:21:10;100412.44;;;-5.46;57.41
72798;BME280;61084;55.816;37.036;2022-12-07T09:23:36;100413.41;;;-5.42;57.37
72798;BME280;61084;55.816;37.036;2022-12-07T09:26:03;100410.09;;;-5.38;57.82
72798;BME280;61084;55.816;37.036;2022-12-07T09:28:30;100403.22;;;-5.39;57.27
72798;BME280;61084;55.816;37.036;2022-12-07T09:30:56;100399.88;;;-5.38;56.95
72798;BME280;61084;55.816;37.036;2022-12-07T09:33:22;100399.22;;;-5.31;56.98
72798;BME280;61084;55.816;37.036;2022-12-07T09:35:49;100396.72;;;-5.28;56.29
72798;BME280;61084;55.816;37.036;2022-12-07T09:38:16;100389.03;;;-5.28;56.62
72798;BME280;61084;55.816;37.036;2022-12-07T09:40:42;100390.78;;;-5.27;56.19
72798;BME280;61084;55.816;37.036;2022-12-07T09:43:19;100388.41;;;-5.19;56.12
72798;BME280;61084;55.816;37.036;2022-12-07T09:45:47;100386.06;;;-5.12;56.19
72798;BME280;61084;55.816;37.036;2022-12-07T09:48:36;100387.09;;;-5.04;56.59
72798;BME280;61084;55.816;37.036;2022-12-07T09:51:34;100385.41;;;-5.03;56.32
72798;BME280;61084;55.816;37.036;2022-12-07T09:54:01;100382.06;;;-5.01;56.09
72798;BME280;61084;55.816;37.036;2022-12-07T09:56:29;100383.88;;;-4.97;55.98
72798;BME280;61084;55.816;37.036;2022-12-07T09:59:01;100377.22;;;-4.89;56.25
72798;BME280;61084;55.816;37.036;2022-12-07T10:01:30;100379.00;;;-4.86;55.89
72798;BME280;61084;55.816;37.036;2022-12-07T10:04:19;100374.03;;;-4.80;55.13
72798;BME280;61084;55.816;37.036;2022-12-07T10:06:46;100368.09;;;-4.79;55.66
72798;BME280;61084;55.816;37.036;2022-12-07T10:09:15;100372.44;;;-4.77;55.81
72798;BME280;61084;55.816;37.036;2022-12-07T10:12:05;100372.56;;;-4.71;55.71
72798;BME280;61084;55.816;37.036;2022-12-07T10:14:34;100374.38;;;-4.65;56.13
72798;BME280;61084;55.816;37.036;2022-12-07T10:17:00;100364.31;;;-4.59;55.72
72798;BME280;61084;55.816;37.036;2022-12-07T10:19:31;100365.97;;;-4.61;55.03
72798;BME280;61084;55.816;37.036;2022-12-07T10:22:15;100360.69;;;-4.67;54.49
72798;BME280;61084;55.816;37.036;2022-12-07T10:24:47;100366.56;;;-4.71;55.32
72798;BME280;61084;55.816;37.036;2022-12-07T10:27:42;100358.78;;;-4.76;54.59
72798;BME280;61084;55.816;37.036;2022-12-07T10:30:14;100353.63;;;-4.77;54.18
72798;BME280;61084;55.816;37.036;2022-12-07T10:32:40;100351.88;;;-4.78;55.10
72798;BME280;61084;55.816;37.036;2022-12-07T10:35:20;100341.72;;;-4.75;55.16
72798;BME280;61084;55.816;37.036;2022-12-07T10:37:47;100350.31;;;-4.73;55.18
72798;BME280;61084;55.816;37.036;2022-12-07T10:40:49;100340.09;;;-4.72;55.56
72798;BME280;61084;55.816;37.036;2022-12-07T10:43:27;100342.53;;;-4.76;55.51
72798;BME280;61084;55.816;37.036;2022-12-07T10:57:37;100316.94;;;-4.76;55.33
72798;BME280;61084;55.816;37.036;2022-12-07T11:00:23;100320.25;;;-4.82;55.33
72798;BME280;61084;55.816;37.036;2022-12-07T11:03:18;100327.84;;;-4.85;55.39
72798;BME280;61084;55.816;37.036;2022-12-07T11:08:38;100316.56;;;-4.93;55.13
72798;BME280;61084;55.816;37.036;2022-12-07T11:11:25;100316.41;;;-5.00;55.46
72798;BME280;61084;55.816;37.036;2022-12-07T11:22:15;100302.66;;;-5.04;55.02
72798;BME280;61084;55.816;37.036;2022-12-07T11:33:29;100282.97;;;-5.06;55.19
72798;BME280;61084;55.816;37.036;2022-12-07T11:36:22;100277.81;;;-5.08;55.39
72798;BME280;61084;55.816;37.036;2022-12-07T11:38:53;100270.00;;;-5.14;55.74
72798;BME280;61084;55.816;37.036;2022-12-07T11:41:29;100270.84;;;-5.15;54.97
72798;BME280;61084;55.816;37.036;2022-12-07T11:46:52;100268.22;;;-5.18;55.31
72798;BME280;61084;55.816;37.036;2022-12-07T11:49:37;100265.56;;;-5.22;55.58
72798;BME280;61084;55.816;37.036;2022-12-07T11:52:18;100267.34;;;-5.18;55.59
72798;BME280;61084;55.816;37.036;2022-12-07T11:54:47;100270.78;;;-5.18;55.63
72798;BME280;61084;55.816;37.036;2022-12-07T11:57:25;100265.69;;;-5.16;55.60
72798;BME280;61084;55.816;37.036;2022-12-07T11:59:58;100266.59;;;-5.14;54.85
72798;BME280;61084;55.816;37.036;2022-12-07T12:02:33;100263.09;;;-5.18;55.35
72798;BME280;61084;55.816;37.036;2022-12-07T12:05:21;100269.06;;;-5.17;55.31
72798;BME280;61084;55.816;37.036;2022-12-07T12:07:57;100265.69;;;-5.16;55.14
72798;BME280;61084;55.816;37.036;2022-12-07T12:15:51;100262.22;;;-5.18;55.48
72798;BME280;61084;55.816;37.036;2022-12-07T12:21:09;100249.25;;;-5.26;55.81
72798;BME280;61084;55.816;37.036;2022-12-07T12:26:27;100242.47;;;-5.24;55.40
72798;BME280;61084;55.816;37.036;2022-12-07T12:31:41;100249.06;;;-5.35;55.90
72798;BME280;61084;55.816;37.036;2022-12-07T12:42:58;100247.06;;;-5.47;55.40
72798;BME280;61084;55.816;37.036;2022-12-07T12:45:29;100249.66;;;-5.44;55.48
72798;BME280;61084;55.816;37.036;2022-12-07T12:50:27;100251.31;;;-5.47;56.10
72798;BME280;61084;55.816;37.036;2022-12-07T13:00:44;100233.00;;;-5.64;55.95
72798;BME280;61084;55.816;37.036;2022-12-07T13:03:26;100242.25;;;-5.69;56.09
72798;BME280;61084;55.816;37.036;2022-12-07T13:06:18;100236.09;;;-5.75;56.63
72798;BME280;61084;55.816;37.036;2022-12-07T13:08:45;100233.44;;;-5.80;55.81
72798;BME280;61084;55.816;37.036;2022-12-07T13:11:41;100244.50;;;-5.81;55.77
72798;BME280;61084;55.816;37.036;2022-12-07T13:17:11;100236.78;;;-5.84;56.03
72798;BME280;61084;55.816;37.036;2022-12-07T13:27:37;100224.41;;;-6.00;56.24
72798;BME280;61084;55.816;37.036;2022-12-07T13:30:14;100231.06;;;-6.06;56.72
72798;BME280;61084;55.816;37.036;2022-12-07T13:32:41;100218.09;;;-6.14;56.38
72798;BME280;61084;55.816;37.036;2022-12-07T13:35:34;100221.44;;;-6.17;56.30
72798;BME280;61084;55.816;37.036;2022-12-07T13:38:22;100217.97;;;-6.19;56.45
72798;BME280;61084;55.816;37.036;2022-12-07T13:41:04;100213.63;;;-6.23;56.83
72798;BME280;61084;55.816;37.036;2022-12-07T13:43:30;100223.75;;;-6.26;56.87
72798;BME280;61084;55.816;37.036;2022-12-07T13:45:59;100220.88;;;-6.38;56.98
72798;BME280;61084;55.816;37.036;2022-12-07T13:48:43;100217.34;;;-6.41;56.95
72798;BME280;61084;55.816;37.036;2022-12-07T13:51:21;100218.97;;;-6.45;57.07
72798;BME280;61084;55.816;37.036;2022-12-07T13:53:55;100218.75;;;-6.52;57.43
72798;BME280;61084;55.816;37.036;2022-12-07T13:56:32;100223.00;;;-6.53;57.04
72798;BME280;61084;55.816;37.036;2022-12-07T13:58:59;100229.78;;;-6.53;57.62
72798;BME280;61084;55.816;37.036;2022-12-07T14:01:25;100218.63;;;-6.57;57.25
72798;BME280;61084;55.816;37.036;2022-12-07T14:03:51;100220.25;;;-6.59;57.35
72798;BME280;61084;55.816;37.036;2022-12-07T14:06:24;100219.31;;;-6.62;57.36
72798;BME280;61084;55.816;37.036;2022-12-07T14:09:06;100230.41;;;-6.62;57.36
72798;BME280;61084;55.816;37.036;2022-12-07T14:11:32;100230.38;;;-6.63;57.54
72798;BME280;61084;55.816;37.036;2022-12-07T14:14:00;100231.06;;;-6.67;57.73
72798;BME280;61084;55.816;37.036;2022-12-07T14:16:36;100235.28;;;-6.69;57.63
72798;BME280;61084;55.816;37.036;2022-12-07T14:19:05;100235.25;;;-6.71;57.71
72798;BME280;61084;55.816;37.036;2022-12-07T14:21:33;100233.44;;;-6.73;57.82
72798;BME280;61084;55.816;37.036;2022-12-07T14:24:19;100230.91;;;-6.73;57.76
72798;BME280;61084;55.816;37.036;2022-12-07T14:26:49;100225.72;;;-6.76;57.60
72798;BME280;61084;55.816;37.036;2022-12-07T14:31:52;100233.25;;;-6.81;57.68
72798;BME280;61084;55.816;37.036;2022-12-07T14:34:22;100227.28;;;-6.81;58.13
72798;BME280;61084;55.816;37.036;2022-12-07T14:36:49;100227.25;;;-6.83;57.98
72798;BME280;61084;55.816;37.036;2022-12-07T14:39:15;100218.72;;;-6.83;57.99
72798;BME280;61084;55.816;37.036;2022-12-07T14:41:41;100223.81;;;-6.83;58.03
72798;BME280;61084;55.816;37.036;2022-12-07T14:44:17;100216.91;;;-6.87;58.04
72798;BME280;61084;55.816;37.036;2022-12-07T14:46:43;100219.38;;;-6.89;57.98
72798;BME280;61084;55.816;37.036;2022-12-07T14:49:09;100216.69;;;-6.94;58.03
72798;BME280;61084;55.816;37.036;2022-12-07T14:51:37;100214.09;;;-6.95;58.14
72798;BME280;61084;55.816;37.036;2022-12-07T14:54:05;100215.75;;;-6.97;58.38
72798;BME280;61084;55.816;37.036;2022-12-07T14:56:32;100224.31;;;-6.95;58.17
72798;BME280;61084;55.816;37.036;2022-12-07T14:58:57;100214.94;;;-6.96;58.17